sensor_id;sensor_type;location;lat;lon;timestamp;temperature;humidity
40253;DHT22;25972;51.854;4.534;2023-02-18T00:02:04;9.10;99.90
40253;DHT22;25972;51.854;4.534;2023-02-18T00:04:30;9.10;99.90
40253;DHT22;25972;51.854;4.534;2023-02-18T00:06:58;9.00;99.90
40253;DHT22;25972;51.854;4.534;2023-02-18T00:09:24;8.90;99.90
40253;DHT22;25972;51.854;4.534;2023-02-18T00:11:51;9.20;99.90
40253;DHT22;25972;51.854;4.534;2023-02-18T00:14:18;9.10;99.90
40253;DHT22;25972;51.854;4.534;2023-02-18T00:16:44;9.10;99.90
40253;DHT22;25972;51.854;4.534;2023-02-18T00:19:20;9.00;99.90
40253;DHT22;25972;51.854;4.534;2023-02-18T00:21:46;9.00;99.90
40253;DHT22;25972;51.854;4.534;2023-02-18T00:24:14;9.00;99.90
40253;DHT22;25972;51.854;4.534;2023-02-18T00:26:41;9.00;99.90
40253;DHT22;25972;51.854;4.534;2023-02-18T00:29:07;9.10;99.90
40253;DHT22;25972;51.854;4.534;2023-02-18T00:31:35;9.30;99.90
40253;DHT22;25972;51.854;4.534;2023-02-18T00:34:02;9.30;99.90
40253;DHT22;25972;51.854;4.534;2023-02-18T00:36:30;9.30;99.90
40253;DHT22;25972;51.854;4.534;2023-02-18T00:38:58;9.10;99.90
40253;DHT22;25972;51.854;4.534;2023-02-18T00:41:27;9.30;99.90
40253;DHT22;25972;51.854;4.534;2023-02-18T00:43:56;9.20;99.90
40253;DHT22;25972;51.854;4.534;2023-02-18T00:46:23;9.40;99.90
40253;DHT22;25972;51.854;4.534;2023-02-18T00:48:49;9.40;99.90
40253;DHT22;25972;51.854;4.534;2023-02-18T00:51:16;9.20;99.90
40253;DHT22;25972;51.854;4.534;2023-02-18T00:53:41;9.50;99.90
40253;DHT22;25972;51.854;4.534;2023-02-18T00:56:07;9.50;99.90
40253;DHT22;25972;51.854;4.534;2023-02-18T00:58:34;9.40;99.90
40253;DHT22;25972;51.854;4.534;2023-02-18T01:01:04;9.50;99.90
40253;DHT22;25972;51.854;4.534;2023-02-18T01:03:34;9.50;99.90
40253;DHT22;25972;51.854;4.534;2023-02-18T01:06:00;9.40;99.90
40253;DHT22;25972;51.854;4.534;2023-02-18T01:08:26;9.40;99.90
40253;DHT22;25972;51.854;4.534;2023-02-18T01:10:54;9.40;99.90
40253;DHT22;25972;51.854;4.534;2023-02-18T01:13:21;9.50;99.90
40253;DHT22;25972;51.854;4.534;2023-02-18T01:15:47;9.60;99.90
40253;DHT22;25972;51.854;4.534;2023-02-18T01:18:13;9.60;99.90
40253;DHT22;25972;51.854;4.534;2023-02-18T01:20:41;9.50;99.90
40253;DHT22;25972;51.854;4.534;2023-02-18T01:23:08;9.40;99.90
40253;DHT22;25972;51.854;4.534;2023-02-18T01:25:34;9.60;99.90
40253;DHT22;25972;51.854;4.534;2023-02-18T01:28:02;9.50;99.90
40253;DHT22;25972;51.854;4.534;2023-02-18T01:30:28;9.50;99.90
40253;DHT22;25972;51.854;4.534;2023-02-18T01:32:55;9.50;99.90
40253;DHT22;25972;51.854;4.534;2023-02-18T01:35:21;9.50;99.90
40253;DHT22;25972;51.854;4.534;2023-02-18T01:37:49;9.70;99.90
40253;DHT22;25972;51.854;4.534;2023-02-18T01:40:20;9.50;99.90
40253;DHT22;25972;51.854;4.534;2023-02-18T01:42:47;9.80;99.90
40253;DHT22;25972;51.854;4.534;2023-02-18T01:50:37;9.60;99.90
40253;DHT22;25972;51.854;4.534;2023-02-18T01:53:05;9.60;99.90
40253;DHT22;25972;51.854;4.534;2023-02-18T01:55:33;9.60;99.90
40253;DHT22;25972;51.854;4.534;2023-02-18T01:58:00;9.80;99.90
40253;DHT22;25972;51.854;4.534;2023-02-18T02:00:28;9.80;99.90
40253;DHT22;25972;51.854;4.534;2023-02-18T02:02:55;9.60;99.90
40253;DHT22;25972;51.854;4.534;2023-02-18T02:05:31;9.80;99.90
40253;DHT22;25972;51.854;4.534;2023-02-18T02:08:38;9.80;99.90
40253;DHT22;25972;51.854;4.534;2023-02-18T02:14:16;9.70;99.90
40253;DHT22;25972;51.854;4.534;2023-02-18T02:17:03;9.70;99.90
40253;DHT22;25972;51.854;4.534;2023-02-18T02:25:45;9.70;99.90
40253;DHT22;25972;51.854;4.534;2023-02-18T02:28:58;9.70;99.90
40253;DHT22;25972;51.854;4.534;2023-02-18T02:34:47;9.70;99.90
40253;DHT22;25972;51.854;4.534;2023-02-18T02:37:26;9.80;99.90
40253;DHT22;25972;51.854;4.534;2023-02-18T02:40:26;9.70;99.90
40253;DHT22;25972;51.854;4.534;2023-02-18T02:51:08;9.70;99.90
40253;DHT22;25972;51.854;4.534;2023-02-18T02:53:36;10.00;99.90
40253;DHT22;25972;51.854;4.534;2023-02-18T02:56:02;9.90;99.90
40253;DHT22;25972;51.854;4.534;2023-02-18T02:58:29;9.90;99.90
40253;DHT22;25972;51.854;4.534;2023-02-18T03:07:00;10.10;99.90
40253;DHT22;25972;51.854;4.534;2023-02-18T03:17:36;10.00;99.90
40253;DHT22;25972;51.854;4.534;2023-02-18T03:20:26;10.00;99.90
40253;DHT22;25972;51.854;4.534;2023-02-18T03:22:53;10.20;99.90
40253;DHT22;25972;51.854;4.534;2023-02-18T03:25:21;10.00;99.90
40253;DHT22;25972;51.854;4.534;2023-02-18T03:28:01;10.20;99.90
40253;DHT22;25972;51.854;4.534;2023-02-18T03:30:34;10.20;99.90
40253;DHT22;25972;51.854;4.534;2023-02-18T03:33:07;10.10;99.90
40253;DHT22;25972;51.854;4.534;2023-02-18T03:35:35;10.10;99.90
40253;DHT22;25972;51.854;4.534;2023-02-18T03:38:22;10.10;99.90
40253;DHT22;25972;51.854;4.534;2023-02-18T03:40:49;9.90;99.90
40253;DHT22;25972;51.854;4.534;2023-02-18T03:43:15;10.00;99.90
40253;DHT22;25972;51.854;4.534;2023-02-18T03:45:41;9.90;99.90
40253;DHT22;25972;51.854;4.534;2023-02-18T03:48:08;9.90;99.90
40253;DHT22;25972;51.854;4.534;2023-02-18T03:50:34;9.80;99.90
40253;DHT22;25972;51.854;4.534;2023-02-18T03:52:59;9.90;99.90
40253;DHT22;25972;51.854;4.534;2023-02-18T03:55:26;9.80;99.90
40253;DHT22;25972;51.854;4.534;2023-02-18T03:57:52;9.90;99.90
40253;DHT22;25972;51.854;4.534;2023-02-18T04:00:18;9.90;99.90
40253;DHT22;25972;51.854;4.534;2023-02-18T04:02:44;9.80;99.90
40253;DHT22;25972;51.854;4.534;2023-02-18T04:05:11;9.80;99.90
40253;DHT22;25972;51.854;4.534;2023-02-18T04:07:37;9.90;99.90
40253;DHT22;25972;51.854;4.534;2023-02-18T04:10:04;9.80;99.90
40253;DHT22;25972;51.854;4.534;2023-02-18T04:12:30;9.90;99.90
40253;DHT22;25972;51.854;4.534;2023-02-18T04:14:56;9.90;99.90
40253;DHT22;25972;51.854;4.534;2023-02-18T04:17:22;10.00;99.90
40253;DHT22;25972;51.854;4.534;2023-02-18T04:19:48;9.90;99.90
40253;DHT22;25972;51.854;4.534;2023-02-18T04:22:13;9.90;99.90
40253;DHT22;25972;51.854;4.534;2023-02-18T04:24:39;9.90;99.90
40253;DHT22;25972;51.854;4.534;2023-02-18T04:27:05;9.90;99.90
40253;DHT22;25972;51.854;4.534;2023-02-18T04:29:45;9.90;99.90
40253;DHT22;25972;51.854;4.534;2023-02-18T04:35:11;9.70;99.90
40253;DHT22;25972;51.854;4.534;2023-02-18T04:37:38;9.70;99.90
40253;DHT22;25972;51.854;4.534;2023-02-18T04:40:04;9.80;99.90
40253;DHT22;25972;51.854;4.534;2023-02-18T04:42:30;9.90;99.90
40253;DHT22;25972;51.854;4.534;2023-02-18T04:44:56;9.80;99.90
40253;DHT22;25972;51.854;4.534;2023-02-18T04:47:22;9.90;99.90
40253;DHT22;25972;51.854;4.534;2023-02-18T04:49:48;9.70;99.90
40253;DHT22;25972;51.854;4.534;2023-02-18T04:52:14;9.90;99.90
40253;DHT22;25972;51.854;4.534;2023-02-18T04:54:39;9.70;99.90
40253;DHT22;25972;51.854;4.534;2023-02-18T04:57:05;9.80;99.90
40253;DHT22;25972;51.854;4.534;2023-02-18T04:59:31;9.90;99.90
40253;DHT22;25972;51.854;4.534;2023-02-18T05:01:57;9.80;99.90
40253;DHT22;25972;51.854;4.534;2023-02-18T05:04:23;9.90;99.90
40253;DHT22;25972;51.854;4.534;2023-02-18T05:06:49;9.90;99.90
40253;DHT22;25972;51.854;4.534;2023-02-18T05:09:14;9.90;99.90
40253;DHT22;25972;51.854;4.534;2023-02-18T05:11:41;9.80;99.90
40253;DHT22;25972;51.854;4.534;2023-02-18T05:14:07;9.90;99.90
40253;DHT22;25972;51.854;4.534;2023-02-18T05:16:33;9.90;99.90
40253;DHT22;25972;51.854;4.534;2023-02-18T05:18:59;10.00;99.90
40253;DHT22;25972;51.854;4.534;2023-02-18T05:21:25;9.80;99.90
40253;DHT22;25972;51.854;4.534;2023-02-18T05:23:54;9.80;99.90
40253;DHT22;25972;51.854;4.534;2023-02-18T05:26:46;9.70;99.90
40253;DHT22;25972;51.854;4.534;2023-02-18T05:29:13;9.70;99.90
40253;DHT22;25972;51.854;4.534;2023-02-18T05:31:39;9.70;99.90
40253;DHT22;25972;51.854;4.534;2023-02-18T05:34:05;9.90;99.90
40253;DHT22;25972;51.854;4.534;2023-02-18T05:36:31;9.90;99.90
40253;DHT22;25972;51.854;4.534;2023-02-18T05:38:57;9.90;99.90
40253;DHT22;25972;51.854;4.534;2023-02-18T05:41:23;9.80;99.90
40253;DHT22;25972;51.854;4.534;2023-02-18T05:43:49;9.80;99.90
40253;DHT22;25972;51.854;4.534;2023-02-18T05:46:33;9.70;99.90
40253;DHT22;25972;51.854;4.534;2023-02-18T05:48:59;9.90;99.90
40253;DHT22;25972;51.854;4.534;2023-02-18T05:51:25;10.00;99.90
40253;DHT22;25972;51.854;4.534;2023-02-18T05:53:51;9.80;99.90
40253;DHT22;25972;51.854;4.534;2023-02-18T05:56:17;9.80;99.90
40253;DHT22;25972;51.854;4.534;2023-02-18T05:58:46;9.90;99.90
40253;DHT22;25972;51.854;4.534;2023-02-18T06:01:12;10.00;99.90
40253;DHT22;25972;51.854;4.534;2023-02-18T06:03:38;9.80;99.90
40253;DHT22;25972;51.854;4.534;2023-02-18T06:06:04;10.00;99.90
40253;DHT22;25972;51.854;4.534;2023-02-18T06:08:30;10.00;99.90
40253;DHT22;25972;51.854;4.534;2023-02-18T06:10:56;9.80;99.90
40253;DHT22;25972;51.854;4.534;2023-02-18T06:13:22;10.00;99.90
40253;DHT22;25972;51.854;4.534;2023-02-18T06:15:51;9.80;99.90
40253;DHT22;25972;51.854;4.534;2023-02-18T06:18:18;10.10;99.90
40253;DHT22;25972;51.854;4.534;2023-02-18T06:20:46;10.00;99.90
40253;DHT22;25972;51.854;4.534;2023-02-18T06:23:12;10.00;99.90
40253;DHT22;25972;51.854;4.534;2023-02-18T06:25:44;9.90;99.90
40253;DHT22;25972;51.854;4.534;2023-02-18T06:28:32;9.80;99.90
40253;DHT22;25972;51.854;4.534;2023-02-18T06:30:58;10.00;99.90
40253;DHT22;25972;51.854;4.534;2023-02-18T06:33:33;9.80;99.90
40253;DHT22;25972;51.854;4.534;2023-02-18T06:36:12;10.00;99.90
40253;DHT22;25972;51.854;4.534;2023-02-18T06:38:47;9.80;99.90
40253;DHT22;25972;51.854;4.534;2023-02-18T06:41:31;9.90;99.90
40253;DHT22;25972;51.854;4.534;2023-02-18T06:43:59;9.90;99.90
40253;DHT22;25972;51.854;4.534;2023-02-18T06:46:34;9.70;99.90
40253;DHT22;25972;51.854;4.534;2023-02-18T06:49:03;9.80;99.90
40253;DHT22;25972;51.854;4.534;2023-02-18T06:51:29;9.70;99.90
40253;DHT22;25972;51.854;4.534;2023-02-18T06:54:21;9.80;99.90
40253;DHT22;25972;51.854;4.534;2023-02-18T06:56:46;9.70;99.90
40253;DHT22;25972;51.854;4.534;2023-02-18T06:59:12;9.60;99.90
40253;DHT22;25972;51.854;4.534;2023-02-18T07:01:38;9.60;99.90
40253;DHT22;25972;51.854;4.534;2023-02-18T07:04:04;9.60;99.90
40253;DHT22;25972;51.854;4.534;2023-02-18T07:06:30;9.60;99.90
40253;DHT22;25972;51.854;4.534;2023-02-18T07:08:56;9.60;99.90
40253;DHT22;25972;51.854;4.534;2023-02-18T07:11:25;9.50;99.90
40253;DHT22;25972;51.854;4.534;2023-02-18T07:13:51;9.50;99.90
40253;DHT22;25972;51.854;4.534;2023-02-18T07:16:17;9.60;99.90
40253;DHT22;25972;51.854;4.534;2023-02-18T07:18:42;9.50;99.90
40253;DHT22;25972;51.854;4.534;2023-02-18T07:21:08;9.60;99.90
40253;DHT22;25972;51.854;4.534;2023-02-18T07:23:34;9.50;99.90
40253;DHT22;25972;51.854;4.534;2023-02-18T07:26:08;9.50;99.90
40253;DHT22;25972;51.854;4.534;2023-02-18T07:28:34;9.50;99.90
40253;DHT22;25972;51.854;4.534;2023-02-18T07:31:00;9.50;99.90
40253;DHT22;25972;51.854;4.534;2023-02-18T07:33:27;9.50;99.90
40253;DHT22;25972;51.854;4.534;2023-02-18T07:35:54;9.60;99.90
40253;DHT22;25972;51.854;4.534;2023-02-18T07:38:21;9.50;99.90
40253;DHT22;25972;51.854;4.534;2023-02-18T07:40:47;9.50;99.90
40253;DHT22;25972;51.854;4.534;2023-02-18T07:43:12;9.60;99.90
40253;DHT22;25972;51.854;4.534;2023-02-18T07:45:38;9.50;99.90
40253;DHT22;25972;51.854;4.534;2023-02-18T07:48:04;9.60;99.90
40253;DHT22;25972;51.854;4.534;2023-02-18T07:50:30;9.60;99.90
40253;DHT22;25972;51.854;4.534;2023-02-18T07:53:00;9.60;99.90
40253;DHT22;25972;51.854;4.534;2023-02-18T07:55:26;9.70;99.90
40253;DHT22;25972;51.854;4.534;2023-02-18T08:00:41;9.70;99.90
40253;DHT22;25972;51.854;4.534;2023-02-18T08:03:07;9.70;99.90
40253;DHT22;25972;51.854;4.534;2023-02-18T08:05:33;9.70;99.90
40253;DHT22;25972;51.854;4.534;2023-02-18T08:08:00;9.70;99.90
40253;DHT22;25972;51.854;4.534;2023-02-18T08:10:26;9.70;99.90
40253;DHT22;25972;51.854;4.534;2023-02-18T08:12:51;9.70;99.90
40253;DHT22;25972;51.854;4.534;2023-02-18T08:15:17;9.70;99.90
40253;DHT22;25972;51.854;4.534;2023-02-18T08:17:43;9.70;99.90
40253;DHT22;25972;51.854;4.534;2023-02-18T08:20:09;9.70;99.90
40253;DHT22;25972;51.854;4.534;2023-02-18T08:22:35;9.70;99.90
40253;DHT22;25972;51.854;4.534;2023-02-18T08:25:07;9.70;99.90
40253;DHT22;25972;51.854;4.534;2023-02-18T08:27:33;9.70;99.90
40253;DHT22;25972;51.854;4.534;2023-02-18T08:29:59;9.70;99.90
40253;DHT22;25972;51.854;4.534;2023-02-18T08:32:28;9.70;99.90
40253;DHT22;25972;51.854;4.534;2023-02-18T08:34:54;9.80;99.90
40253;DHT22;25972;51.854;4.534;2023-02-18T08:37:20;9.80;99.90
40253;DHT22;25972;51.854;4.534;2023-02-18T08:39:46;9.80;99.90
40253;DHT22;25972;51.854;4.534;2023-02-18T08:42:12;9.80;99.90
40253;DHT22;25972;51.854;4.534;2023-02-18T08:44:38;9.80;99.90
40253;DHT22;25972;51.854;4.534;2023-02-18T08:47:04;9.80;99.90
40253;DHT22;25972;51.854;4.534;2023-02-18T08:49:30;9.70;99.90
40253;DHT22;25972;51.854;4.534;2023-02-18T08:51:56;9.70;99.90
40253;DHT22;25972;51.854;4.534;2023-02-18T08:54:22;9.70;99.90
40253;DHT22;25972;51.854;4.534;2023-02-18T08:56:48;9.70;99.90
40253;DHT22;25972;51.854;4.534;2023-02-18T08:59:15;9.70;99.90
40253;DHT22;25972;51.854;4.534;2023-02-18T09:01:41;9.70;99.90
40253;DHT22;25972;51.854;4.534;2023-02-18T09:04:07;9.80;99.90
40253;DHT22;25972;51.854;4.534;2023-02-18T09:06:36;9.70;99.90
40253;DHT22;25972;51.854;4.534;2023-02-18T09:09:03;9.80;99.90
40253;DHT22;25972;51.854;4.534;2023-02-18T09:11:29;9.80;99.90
40253;DHT22;25972;51.854;4.534;2023-02-18T09:13:55;9.80;99.90
40253;DHT22;25972;51.854;4.534;2023-02-18T09:16:21;9.90;99.90
40253;DHT22;25972;51.854;4.534;2023-02-18T09:18:47;9.90;99.90
40253;DHT22;25972;51.854;4.534;2023-02-18T09:21:15;9.90;99.90
40253;DHT22;25972;51.854;4.534;2023-02-18T09:23:41;9.90;99.90
40253;DHT22;25972;51.854;4.534;2023-02-18T09:26:09;9.90;99.90
40253;DHT22;25972;51.854;4.534;2023-02-18T09:28:36;10.00;99.90
40253;DHT22;25972;51.854;4.534;2023-02-18T09:31:10;10.00;99.90
40253;DHT22;25972;51.854;4.534;2023-02-18T09:33:42;10.00;99.90
40253;DHT22;25972;51.854;4.534;2023-02-18T09:36:08;10.00;99.90
40253;DHT22;25972;51.854;4.534;2023-02-18T09:38:34;10.00;99.90
40253;DHT22;25972;51.854;4.534;2023-02-18T09:41:03;10.00;99.90
40253;DHT22;25972;51.854;4.534;2023-02-18T09:43:40;10.00;99.90
40253;DHT22;25972;51.854;4.534;2023-02-18T09:46:31;9.90;99.90
40253;DHT22;25972;51.854;4.534;2023-02-18T09:49:05;10.00;99.90
40253;DHT22;25972;51.854;4.534;2023-02-18T09:51:32;10.00;99.90
40253;DHT22;25972;51.854;4.534;2023-02-18T09:53:58;10.00;99.90
40253;DHT22;25972;51.854;4.534;2023-02-18T09:56:31;10.10;99.90
40253;DHT22;25972;51.854;4.534;2023-02-18T09:59:02;10.00;99.90
40253;DHT22;25972;51.854;4.534;2023-02-18T10:01:35;10.10;99.90
40253;DHT22;25972;51.854;4.534;2023-02-18T10:06:51;10.10;99.90
40253;DHT22;25972;51.854;4.534;2023-02-18T10:09:27;10.10;99.90
40253;DHT22;25972;51.854;4.534;2023-02-18T10:11:57;10.20;99.90
40253;DHT22;25972;51.854;4.534;2023-02-18T10:14:25;10.10;99.90
40253;DHT22;25972;51.854;4.534;2023-02-18T10:16:51;10.20;99.90
40253;DHT22;25972;51.854;4.534;2023-02-18T10:19:23;10.20;99.90
40253;DHT22;25972;51.854;4.534;2023-02-18T10:21:51;10.20;99.90
40253;DHT22;25972;51.854;4.534;2023-02-18T10:24:32;10.20;99.90
40253;DHT22;25972;51.854;4.534;2023-02-18T10:27:00;10.20;99.90
40253;DHT22;25972;51.854;4.534;2023-02-18T10:29:27;10.20;99.90
40253;DHT22;25972;51.854;4.534;2023-02-18T10:34:52;10.20;99.90
40253;DHT22;25972;51.854;4.534;2023-02-18T10:40:10;10.20;99.90
40253;DHT22;25972;51.854;4.534;2023-02-18T10:45:27;10.20;99.90
40253;DHT22;25972;51.854;4.534;2023-02-18T10:50:44;10.20;99.90
40253;DHT22;25972;51.854;4.534;2023-02-18T10:55:44;10.20;99.90
40253;DHT22;25972;51.854;4.534;2023-02-18T11:01:04;10.20;99.90
40253;DHT22;25972;51.854;4.534;2023-02-18T11:03:47;10.20;99.90
40253;DHT22;25972;51.854;4.534;2023-02-18T11:09:05;10.30;99.90
40253;DHT22;25972;51.854;4.534;2023-02-18T11:11:35;10.40;99.90
40253;DHT22;25972;51.854;4.534;2023-02-18T11:14:06;10.40;99.90
40253;DHT22;25972;51.854;4.534;2023-02-18T11:19:01;10.50;99.90
40253;DHT22;25972;51.854;4.534;2023-02-18T11:21:37;10.60;99.90
40253;DHT22;25972;51.854;4.534;2023-02-18T11:24:09;10.60;99.90
40253;DHT22;25972;51.854;4.534;2023-02-18T11:26:36;10.70;99.90
40253;DHT22;25972;51.854;4.534;2023-02-18T11:29:19;10.70;99.90
40253;DHT22;25972;51.854;4.534;2023-02-18T11:31:48;10.80;99.90
40253;DHT22;25972;51.854;4.534;2023-02-18T11:34:20;10.80;99.90
40253;DHT22;25972;51.854;4.534;2023-02-18T11:36:47;10.90;99.90
40253;DHT22;25972;51.854;4.534;2023-02-18T11:39:20;10.90;99.90
40253;DHT22;25972;51.854;4.534;2023-02-18T11:42:07;11.00;99.90
40253;DHT22;25972;51.854;4.534;2023-02-18T11:44:39;10.90;99.90
40253;DHT22;25972;51.854;4.534;2023-02-18T11:49:38;10.90;99.90
40253;DHT22;25972;51.854;4.534;2023-02-18T11:52:09;11.00;99.90
40253;DHT22;25972;51.854;4.534;2023-02-18T11:54:39;10.90;99.90
40253;DHT22;25972;51.854;4.534;2023-02-18T11:57:09;10.80;99.90
40253;DHT22;25972;51.854;4.534;2023-02-18T11:59:37;10.90;99.90
40253;DHT22;25972;51.854;4.534;2023-02-18T12:05:08;10.80;99.90
40253;DHT22;25972;51.854;4.534;2023-02-18T12:10:03;10.70;99.90
40253;DHT22;25972;51.854;4.534;2023-02-18T12:12:37;10.70;99.90
40253;DHT22;25972;51.854;4.534;2023-02-18T12:15:04;10.80;99.90
40253;DHT22;25972;51.854;4.534;2023-02-18T12:17:59;10.80;99.90
40253;DHT22;25972;51.854;4.534;2023-02-18T12:26:12;10.90;99.90
40253;DHT22;25972;51.854;4.534;2023-02-18T12:29:08;11.00;99.90
40253;DHT22;25972;51.854;4.534;2023-02-18T12:37:04;11.00;99.90
40253;DHT22;25972;51.854;4.534;2023-02-18T12:57:42;11.40;99.90
40253;DHT22;25972;51.854;4.534;2023-02-18T13:00:08;11.40;99.90
40253;DHT22;25972;51.854;4.534;2023-02-18T13:02:51;11.50;99.90
40253;DHT22;25972;51.854;4.534;2023-02-18T13:08:02;11.50;99.90
40253;DHT22;25972;51.854;4.534;2023-02-18T13:13:15;11.50;99.90
40253;DHT22;25972;51.854;4.534;2023-02-18T13:16:02;11.50;99.90
40253;DHT22;25972;51.854;4.534;2023-02-18T13:18:30;11.40;99.90
40253;DHT22;25972;51.854;4.534;2023-02-18T13:21:08;11.40;99.90
40253;DHT22;25972;51.854;4.534;2023-02-18T13:23:49;11.50;99.90
40253;DHT22;25972;51.854;4.534;2023-02-18T13:26:17;11.40;99.90
40253;DHT22;25972;51.854;4.534;2023-02-18T13:33:50;11.40;99.90
40253;DHT22;25972;51.854;4.534;2023-02-18T13:36:31;11.40;99.90
40253;DHT22;25972;51.854;4.534;2023-02-18T13:39:16;11.40;99.90
40253;DHT22;25972;51.854;4.534;2023-02-18T13:41:46;11.40;99.90
40253;DHT22;25972;51.854;4.534;2023-02-18T13:46:53;11.40;99.90
40253;DHT22;25972;51.854;4.534;2023-02-18T13:49:25;11.50;99.90
40253;DHT22;25972;51.854;4.534;2023-02-18T13:51:54;11.50;99.90
40253;DHT22;25972;51.854;4.534;2023-02-18T13:54:40;11.60;99.90
40253;DHT22;25972;51.854;4.534;2023-02-18T14:00:01;11.70;99.90
40253;DHT22;25972;51.854;4.534;2023-02-18T14:02:34;11.80;99.90
40253;DHT22;25972;51.854;4.534;2023-02-18T14:10:27;12.10;99.90
40253;DHT22;25972;51.854;4.534;2023-02-18T14:33:41;11.60;99.90
40253;DHT22;25972;51.854;4.534;2023-02-18T14:41:49;11.50;99.90
40253;DHT22;25972;51.854;4.534;2023-02-18T14:50:11;11.40;99.90
40253;DHT22;25972;51.854;4.534;2023-02-18T14:52:44;11.50;99.90
40253;DHT22;25972;51.854;4.534;2023-02-18T14:55:22;11.40;99.90
40253;DHT22;25972;51.854;4.534;2023-02-18T14:57:57;11.40;99.90
40253;DHT22;25972;51.854;4.534;2023-02-18T15:00:28;11.40;99.90
40253;DHT22;25972;51.854;4.534;2023-02-18T15:02:57;11.40;99.90
40253;DHT22;25972;51.854;4.534;2023-02-18T15:05:31;11.30;99.90
40253;DHT22;25972;51.854;4.534;2023-02-18T15:08:11;11.30;99.90
40253;DHT22;25972;51.854;4.534;2023-02-18T15:10:43;11.30;99.90
40253;DHT22;25972;51.854;4.534;2023-02-18T15:13:29;11.20;99.90
40253;DHT22;25972;51.854;4.534;2023-02-18T15:16:05;11.20;99.90
40253;DHT22;25972;51.854;4.534;2023-02-18T15:18:41;11.10;99.90
40253;DHT22;25972;51.854;4.534;2023-02-18T15:21:18;11.00;99.90
40253;DHT22;25972;51.854;4.534;2023-02-18T15:23:46;10.90;99.90
40253;DHT22;25972;51.854;4.534;2023-02-18T15:26:15;10.90;99.90
40253;DHT22;25972;51.854;4.534;2023-02-18T15:29:02;10.90;99.90
40253;DHT22;25972;51.854;4.534;2023-02-18T15:31:35;10.90;99.90
40253;DHT22;25972;51.854;4.534;2023-02-18T15:34:02;10.80;99.90
40253;DHT22;25972;51.854;4.534;2023-02-18T15:36:31;10.80;99.90
40253;DHT22;25972;51.854;4.534;2023-02-18T15:38:56;10.80;99.90
40253;DHT22;25972;51.854;4.534;2023-02-18T15:41:22;10.80;99.90
40253;DHT22;25972;51.854;4.534;2023-02-18T15:43:59;10.80;99.90
40253;DHT22;25972;51.854;4.534;2023-02-18T15:46:26;10.70;99.90
40253;DHT22;25972;51.854;4.534;2023-02-18T15:48:53;10.70;99.90
40253;DHT22;25972;51.854;4.534;2023-02-18T15:51:24;10.70;99.90
40253;DHT22;25972;51.854;4.534;2023-02-18T15:53:53;10.70;99.90
40253;DHT22;25972;51.854;4.534;2023-02-18T15:59:20;10.70;99.90
40253;DHT22;25972;51.854;4.534;2023-02-18T16:01:54;10.70;99.90
40253;DHT22;25972;51.854;4.534;2023-02-18T16:04:22;10.70;99.90
40253;DHT22;25972;51.854;4.534;2023-02-18T16:06:51;10.60;99.90
40253;DHT22;25972;51.854;4.534;2023-02-18T16:09:30;10.60;99.90
40253;DHT22;25972;51.854;4.534;2023-02-18T16:11:58;10.60;99.90
40253;DHT22;25972;51.854;4.534;2023-02-18T16:14:47;10.60;99.90
40253;DHT22;25972;51.854;4.534;2023-02-18T16:17:19;10.60;99.90
40253;DHT22;25972;51.854;4.534;2023-02-18T16:20:01;10.50;99.90
40253;DHT22;25972;51.854;4.534;2023-02-18T16:27:48;10.50;99.90
40253;DHT22;25972;51.854;4.534;2023-02-18T16:30:23;10.50;99.90
40253;DHT22;25972;51.854;4.534;2023-02-18T16:32:49;10.50;99.90
40253;DHT22;25972;51.854;4.534;2023-02-18T16:35:17;10.40;99.90
40253;DHT22;25972;51.854;4.534;2023-02-18T16:37:43;10.40;99.90
40253;DHT22;25972;51.854;4.534;2023-02-18T16:42:41;10.40;99.90
40253;DHT22;25972;51.854;4.534;2023-02-18T16:45:11;10.40;99.90
40253;DHT22;25972;51.854;4.534;2023-02-18T16:47:38;10.40;99.90
40253;DHT22;25972;51.854;4.534;2023-02-18T16:50:04;10.40;99.90
40253;DHT22;25972;51.854;4.534;2023-02-18T16:52:31;10.40;99.90
40253;DHT22;25972;51.854;4.534;2023-02-18T16:54:57;10.30;99.90
40253;DHT22;25972;51.854;4.534;2023-02-18T16:57:23;10.30;99.90
40253;DHT22;25972;51.854;4.534;2023-02-18T16:59:49;10.30;99.90
40253;DHT22;25972;51.854;4.534;2023-02-18T17:02:18;10.30;99.90
40253;DHT22;25972;51.854;4.534;2023-02-18T17:04:45;10.30;99.90
40253;DHT22;25972;51.854;4.534;2023-02-18T17:07:11;10.30;99.90
40253;DHT22;25972;51.854;4.534;2023-02-18T17:09:37;10.30;99.90
40253;DHT22;25972;51.854;4.534;2023-02-18T17:12:04;10.30;99.90
40253;DHT22;25972;51.854;4.534;2023-02-18T17:14:30;10.30;99.90
40253;DHT22;25972;51.854;4.534;2023-02-18T17:16:56;10.30;99.90
40253;DHT22;25972;51.854;4.534;2023-02-18T17:19:22;10.30;99.90
40253;DHT22;25972;51.854;4.534;2023-02-18T17:21:48;10.30;99.90
40253;DHT22;25972;51.854;4.534;2023-02-18T17:24:16;10.30;99.90
40253;DHT22;25972;51.854;4.534;2023-02-18T17:26:42;10.30;99.90
40253;DHT22;25972;51.854;4.534;2023-02-18T17:29:09;10.40;99.90
40253;DHT22;25972;51.854;4.534;2023-02-18T17:31:46;10.40;99.90
40253;DHT22;25972;51.854;4.534;2023-02-18T17:34:33;10.40;99.90
40253;DHT22;25972;51.854;4.534;2023-02-18T17:37:12;10.40;99.90
40253;DHT22;25972;51.854;4.534;2023-02-18T17:39:47;10.40;99.90
40253;DHT22;25972;51.854;4.534;2023-02-18T17:42:19;10.40;99.90
40253;DHT22;25972;51.854;4.534;2023-02-18T17:44:47;10.40;99.90
40253;DHT22;25972;51.854;4.534;2023-02-18T17:47:23;10.40;99.90
40253;DHT22;25972;51.854;4.534;2023-02-18T17:50:00;10.30;99.90
40253;DHT22;25972;51.854;4.534;2023-02-18T17:52:44;10.30;99.90
40253;DHT22;25972;51.854;4.534;2023-02-18T17:55:22;10.30;99.90
40253;DHT22;25972;51.854;4.534;2023-02-18T17:58:02;10.30;99.90
40253;DHT22;25972;51.854;4.534;2023-02-18T18:00:37;10.30;99.90
40253;DHT22;25972;51.854;4.534;2023-02-18T18:03:04;10.20;99.90
40253;DHT22;25972;51.854;4.534;2023-02-18T18:05:32;10.20;99.90
40253;DHT22;25972;51.854;4.534;2023-02-18T18:07:59;10.20;99.90
40253;DHT22;25972;51.854;4.534;2023-02-18T18:10:28;10.20;99.90
40253;DHT22;25972;51.854;4.534;2023-02-18T18:13:02;10.20;99.90
40253;DHT22;25972;51.854;4.534;2023-02-18T18:15:29;10.20;99.90
40253;DHT22;25972;51.854;4.534;2023-02-18T18:17:57;10.10;99.90
40253;DHT22;25972;51.854;4.534;2023-02-18T18:20:24;10.10;99.90
40253;DHT22;25972;51.854;4.534;2023-02-18T18:22:52;10.20;99.90
40253;DHT22;25972;51.854;4.534;2023-02-18T18:25:24;10.10;99.90
40253;DHT22;25972;51.854;4.534;2023-02-18T18:27:51;10.10;99.90
40253;DHT22;25972;51.854;4.534;2023-02-18T18:30:24;10.10;99.90
40253;DHT22;25972;51.854;4.534;2023-02-18T18:32:50;10.10;99.90
40253;DHT22;25972;51.854;4.534;2023-02-18T18:35:39;10.10;99.90
40253;DHT22;25972;51.854;4.534;2023-02-18T18:38:04;10.10;99.90
40253;DHT22;25972;51.854;4.534;2023-02-18T18:40:31;10.10;99.90
40253;DHT22;25972;51.854;4.534;2023-02-18T18:42:59;10.10;99.90
40253;DHT22;25972;51.854;4.534;2023-02-18T18:45:32;10.10;99.90
40253;DHT22;25972;51.854;4.534;2023-02-18T18:47:59;10.10;99.90